AYMH

Mount Hagen Kagamuga Airport

Mount Hagen, Papua New Guinea
METAR AYMH 170900Z VRB03KT 9999 SHRA BKN000 BKN050 OVC120 16/16 Q1019
Observed Flight Rules
Oct-17 @ 09:00 UTC (9 hours ago) Instrument Flight Rules
Wind Visibility Clouds Conditions
Variable at 3 knots 10,000+ meters
  • Broken
  • Broken at 5,000' AGL
  • Overcast at 12,000' AGL
  • Rain
Temperatures Readings
Current 16°C / 61°F
Dewpoint 16°C / 61°F
Humidity 100%
Altimeter 30.09" Hg
Pressure 1019 hPa
Elevation 1642
METAR AYMH 170900Z VRB03KT 9999 SHRA BKN000 BKN050 OVC120 16/16 Q1019
Observed Flight Rules
Oct-17 @ 09:00 UTC
(9 hours ago)
LIFR
Wind Visibility
Variable at 3 knots 10,000+ meters
Clouds
  • Broken
  • Broken at 5,000' AGL
  • Overcast at 12,000' AGL
Conditions
  • Rain
Temperature Dewpoint
16°C / 61°F 16°C / 61°F
Humidity Altimeter Pressure
100% 30.09" Hg 1019 hPa